Yao, Japan
Current Conditions -  °F | °C
As of 8:00 PM on Thursday 29 Jan 2015 (Local Time) from RJOO Reporting Station
Broken Clouds Broken Clouds  
Wind Chill: 41°   Ceiling: 10000
Heat Index: 41°   Visibility: 6mi
Dew Point: 27°   Wind: 2mph
Humidity: 57%   Direction: NA
Pressure: 30.27"   Gusts: NA
Location:  34.63°N, 135.58°E
Report Text: RJOO 291100Z VRB02KT 9999 FEW030 SCT080 BKN100 05/M03 Q1025
Loading
Personal Weather Stations






























Interactive Weather Map New forecast layout! Learn more

10-Day Weather Forecast

Advertisements
Track Severe Weather on mobile